Enter the Airport ICAO Code

Search by Airport or City

Current Weather

SBFL | Hercílio Luz International Airport

Florianópolis, Santa Catarina, Brazil

Last Update 39 Minutes Ago

Mist

Temperature of 18 ºC

Light Winds from East

Temperature

18 ºC

Dew Point Temperature

17 ºC

Relative Humidity

93.92 %

Wind Direction

East (110º, Without Significant Variations)

Wind Velocity

7 km/h (04 kt)

Gusts

None

Visibility

Reduced to 4.0 Kilometers

Sea Level Pressure

1020 hPa (Hectopascals)

Layers of Clouds

60% to 90% of Sky Covered from 427 mts (1400 ft) Above Ground Level.

60% to 90% of Sky Covered from 914 mts (3000 ft) Above Ground Level.

METAR SBFL 052100Z 11004KT 4000 BR BKN014 BKN030 18/17 Q1020

Weather Forecast

SBFL | Hercílio Luz International Airport

Florianópolis, Santa Catarina, Brazil

Forecast valid for the next 20 Hours

In the next hour it is expected the begining of:

Light Rain

In 2 to 4 hours it is expected the begining of:

Rain

In 11 to 13 hours it is expected the begining of:

Light Rain

Maximum Temperature

20 ºC in -4 Hours

Minimum Temperature

15 ºC in 10 Hours

TAF SBFL 051600Z 0518/0618 35010KT 9999 SCT017 TX20/0518Z TN15/0608Z TEMPO 0518/0521 5000 RA BKN017 BECMG 0521/0523 4000 -RA BKN009 BECMG 0600/0602 2000 RA BKN004 BECMG 0609/0611 4000 -RA BKN009 RMK PEM